Old Mastic, New York
Current Conditions -  °F | °C
As of 6:56 PM on Sunday 21 Dec 2014 (Local Time) from KHWV Reporting Station
Overcast Overcast  
Wind Chill: 31°   Ceiling: 800
Heat Index: 37°   Visibility: 10mi
Dew Point: 33°   Wind: 8mph
Humidity: 86%   Direction: 360°N
Pressure: 30.32"   Gusts: NA
Location:  40.7682°N, 72.8409°W
Report Text: KHWV 212356Z AUTO 36007KT 10SM OVC008 03/01 A3032 RMK AO2 SLP267 60000 T00280006 10028 20022 53012 TSNO
Loading
Personal Weather Stations






























Interactive Weather Map New forecast layout! Learn more

10-Day Weather Forecast

Advertisements
Track Severe Weather on mobile